createdAt,value
2022-11-13T00:00:17.176Z,2.40
2022-11-13T00:01:38.044Z,2.90
2022-11-13T00:02:58.732Z,3.10
2022-11-13T00:04:19.530Z,2.10
2022-11-13T00:05:40.461Z,2.80
2022-11-13T00:07:02.365Z,3.00
2022-11-13T00:08:22.940Z,3.00
2022-11-13T00:09:43.934Z,2.70
2022-11-13T00:11:12.924Z,2.80
2022-11-13T00:12:33.356Z,2.80
2022-11-13T00:13:55.814Z,2.30
2022-11-13T00:15:16.902Z,1.80
2022-11-13T00:16:37.530Z,2.60
2022-11-13T00:18:00.834Z,0.90
2022-11-13T00:19:21.178Z,2.40
2022-11-13T00:20:41.983Z,1.50
2022-11-13T00:22:03.076Z,2.20
2022-11-13T00:23:24.455Z,2.70
2022-11-13T00:24:45.819Z,1.90
2022-11-13T00:26:15.158Z,1.70
2022-11-13T00:27:35.806Z,1.70
2022-11-13T00:28:59.602Z,2.50
2022-11-13T00:30:20.611Z,1.90
2022-11-13T00:31:41.812Z,2.00
2022-11-13T00:33:02.643Z,1.80
2022-11-13T00:34:46.482Z,2.30
2022-11-13T00:35:46.211Z,1.70
2022-11-13T00:37:06.793Z,1.90
2022-11-13T00:38:28.904Z,1.60
2022-11-13T00:39:54.442Z,1.70
2022-11-13T00:41:14.130Z,1.00
2022-11-13T00:42:34.602Z,1.80
2022-11-13T00:43:55.388Z,1.00
2022-11-13T00:45:16.353Z,1.80
2022-11-13T00:46:37.282Z,1.20
2022-11-13T00:47:58.008Z,1.60
2022-11-13T00:49:18.957Z,1.80
2022-11-13T00:50:39.800Z,1.80
2022-11-13T00:52:02.346Z,1.20
2022-11-13T00:53:23.485Z,0.90
2022-11-13T00:54:43.857Z,2.10
2022-11-13T00:56:05.440Z,0.90
2022-11-13T00:57:27.377Z,1.00
2022-11-13T00:58:47.986Z,1.90
2022-11-13T01:00:11.395Z,1.60
2022-11-13T01:01:32.140Z,1.10
2022-11-13T01:02:53.017Z,0.90
2022-11-13T01:04:14.336Z,0.90
2022-11-13T01:06:49.591Z,0.50
2022-11-13T01:08:13.187Z,0.90
2022-11-13T01:09:34.151Z,0.90
2022-11-13T01:10:54.912Z,0.90
2022-11-13T01:12:16.687Z,1.00
2022-11-13T01:13:38.708Z,1.90
2022-11-13T01:14:59.680Z,1.10
2022-11-13T01:16:22.074Z,1.30
2022-11-13T01:17:42.874Z,1.00
2022-11-13T01:19:03.521Z,1.00
2022-11-13T01:20:25.563Z,0.90
2022-11-13T01:21:46.346Z,1.00
2022-11-13T01:23:07.190Z,1.10
2022-11-13T01:24:28.379Z,1.00
2022-11-13T01:25:49.759Z,0.90
2022-11-13T01:27:10.676Z,0.30
2022-11-13T01:28:31.576Z,0.50
2022-11-13T01:29:51.950Z,1.30
2022-11-13T01:31:16.110Z,0.50
2022-11-13T01:32:36.686Z,0.90
2022-11-13T01:33:57.493Z,1.00
2022-11-13T01:35:18.107Z,0.30
2022-11-13T01:36:38.862Z,1.60
2022-11-13T01:37:59.677Z,0.00
2022-11-13T01:39:20.719Z,0.90
2022-11-13T01:40:46.136Z,0.70
2022-11-13T01:42:07.366Z,1.00
2022-11-13T01:43:30.316Z,1.20
2022-11-13T01:44:53.386Z,0.30
2022-11-13T01:46:32.266Z,0.70
2022-11-13T01:47:53.499Z,0.70
2022-11-13T01:49:31.925Z,1.00
2022-11-13T01:50:52.670Z,0.70
2022-11-13T01:52:25.039Z,0.20
2022-11-13T01:53:45.673Z,1.20
2022-11-13T01:55:10.859Z,0.70
2022-11-13T01:56:31.785Z,0.70
2022-11-13T01:57:52.803Z,1.00
2022-11-13T01:59:18.287Z,1.20
2022-11-13T02:00:38.773Z,0.50
2022-11-13T02:01:59.191Z,0.40
2022-11-13T02:03:20.209Z,0.50
2022-11-13T02:04:41.217Z,0.80
2022-11-13T02:06:02.172Z,1.00
2022-11-13T02:07:23.157Z,0.50
2022-11-13T02:08:44.106Z,1.00
2022-11-13T02:10:05.926Z,0.50
2022-11-13T02:11:26.636Z,1.00
2022-11-13T02:12:49.284Z,0.40
2022-11-13T02:14:09.726Z,0.90
2022-11-13T02:15:31.327Z,1.00
2022-11-13T02:16:53.710Z,0.90
2022-11-13T02:18:14.559Z,0.40
2022-11-13T02:19:37.178Z,0.80
2022-11-13T02:21:16.747Z,0.50
2022-11-13T02:22:57.634Z,0.30
2022-11-13T02:25:33.486Z,0.80
2022-11-13T02:26:56.223Z,0.30
2022-11-13T02:28:17.045Z,0.40
2022-11-13T02:29:37.820Z,0.10
2022-11-13T02:31:09.896Z,0.80
2022-11-13T02:32:30.395Z,0.60
2022-11-13T02:33:51.590Z,0.00
2022-11-13T02:36:25.708Z,1.00
2022-11-13T02:37:46.640Z,0.40
2022-11-13T02:39:09.608Z,0.00
2022-11-13T02:40:30.730Z,0.40
2022-11-13T02:41:51.265Z,0.70
2022-11-13T02:43:12.569Z,0.00
2022-11-13T02:44:33.508Z,0.60
2022-11-13T02:45:54.728Z,0.80
2022-11-13T02:47:15.481Z,0.60
2022-11-13T02:48:36.281Z,0.90
2022-11-13T02:49:57.505Z,1.00
2022-11-13T02:51:18.352Z,0.50
2022-11-13T02:52:39.493Z,0.10
2022-11-13T02:54:01.013Z,0.00
2022-11-13T02:55:22.513Z,0.60
2022-11-13T05:58:24.429Z,6.90
2022-11-13T05:59:45.084Z,3.40
2022-11-13T06:01:11.326Z,5.30
2022-11-13T06:02:35.599Z,6.40
2022-11-13T06:03:57.526Z,5.40
2022-11-13T06:05:18.919Z,4.80
2022-11-13T06:06:39.727Z,5.50
2022-11-13T06:08:00.872Z,5.60
2022-11-13T06:09:21.627Z,5.50
2022-11-13T06:10:42.454Z,3.70
2022-11-13T06:12:04.125Z,4.80
2022-11-13T06:13:25.846Z,5.30
2022-11-13T06:14:46.519Z,3.80
2022-11-13T06:17:25.402Z,4.80
2022-11-13T06:18:47.882Z,4.40
2022-11-13T06:20:10.612Z,3.90
2022-11-13T06:21:32.256Z,2.90
2022-11-13T06:22:52.845Z,3.80
2022-11-13T06:24:13.891Z,3.60
2022-11-13T06:25:34.732Z,3.20
2022-11-13T06:26:56.038Z,3.20
2022-11-13T06:28:16.979Z,3.20
2022-11-13T06:29:37.916Z,3.50
2022-11-13T06:31:03.527Z,3.20
2022-11-13T06:32:24.937Z,3.80
2022-11-13T06:33:45.923Z,3.50
2022-11-13T06:35:08.369Z,4.00
2022-11-13T06:36:30.895Z,3.00
2022-11-13T06:37:51.406Z,4.20
2022-11-13T06:39:13.225Z,4.40
2022-11-13T06:40:34.084Z,3.90
2022-11-13T06:41:55.629Z,2.90
2022-11-13T06:43:16.268Z,2.60
2022-11-13T06:44:38.018Z,4.20
2022-11-13T06:46:01.039Z,0.80
2022-11-13T06:47:21.382Z,3.60
2022-11-13T06:48:43.892Z,3.10
2022-11-13T06:50:06.622Z,3.00
2022-11-13T06:51:28.529Z,2.20
2022-11-13T06:52:49.270Z,3.00
2022-11-13T06:54:11.067Z,2.10
2022-11-13T06:55:31.861Z,3.30
2022-11-13T06:56:52.667Z,3.00
2022-11-13T06:58:14.842Z,3.00
2022-11-13T06:59:35.309Z,3.20
2022-11-13T07:00:56.112Z,3.80
2022-11-13T07:02:17.000Z,3.10
2022-11-13T07:03:38.864Z,3.70
2022-11-13T07:05:00.144Z,3.60
2022-11-13T07:06:23.007Z,2.80
2022-11-13T07:07:44.545Z,3.10
2022-11-13T07:09:05.111Z,2.50
2022-11-13T07:10:26.212Z,3.30
2022-11-13T07:11:47.946Z,0.20
2022-11-13T07:13:08.706Z,2.80
2022-11-13T07:14:29.585Z,2.70
2022-11-13T07:15:50.231Z,2.20
2022-11-13T07:17:11.551Z,2.40
2022-11-13T07:18:32.527Z,2.90
2022-11-13T07:19:53.210Z,2.00
2022-11-13T07:21:14.832Z,2.70
2022-11-13T07:22:36.094Z,2.70
2022-11-13T07:23:57.725Z,1.50
2022-11-13T07:25:18.390Z,2.20
2022-11-13T07:26:39.675Z,3.00
2022-11-13T07:28:00.588Z,2.50
2022-11-13T07:29:22.468Z,2.00
2022-11-13T07:30:43.530Z,1.50
2022-11-13T07:32:04.764Z,2.70
2022-11-13T07:33:25.555Z,2.80
2022-11-13T07:34:46.463Z,2.70
2022-11-13T07:36:08.856Z,2.30
2022-11-13T07:37:30.041Z,2.50
2022-11-13T07:38:51.383Z,2.90
2022-11-13T07:40:13.918Z,2.90
2022-11-13T07:41:35.120Z,2.00
2022-11-13T07:44:09.993Z,2.90
2022-11-13T07:45:32.467Z,2.60
2022-11-13T07:46:53.285Z,2.30
2022-11-13T07:48:15.108Z,2.30
2022-11-13T07:49:36.169Z,2.90
2022-11-13T07:51:01.066Z,1.70
2022-11-13T07:52:21.360Z,2.90
2022-11-13T07:53:42.125Z,2.80
2022-11-13T07:55:04.106Z,2.00
2022-11-13T07:56:24.987Z,1.80
2022-11-13T07:57:48.398Z,3.10
2022-11-13T07:59:10.163Z,2.70
2022-11-13T08:00:32.568Z,1.90
2022-11-13T08:01:54.212Z,2.30
2022-11-13T08:03:15.468Z,3.50
2022-11-13T08:04:37.158Z,1.30
2022-11-13T08:07:14.112Z,2.10
2022-11-13T08:08:34.905Z,2.00
2022-11-13T08:09:55.802Z,2.80
2022-11-13T08:11:17.074Z,2.20
2022-11-13T08:12:37.770Z,2.60
2022-11-13T08:13:59.176Z,2.10
2022-11-13T08:15:20.483Z,2.20
2022-11-13T08:16:41.283Z,2.40
2022-11-13T08:18:02.440Z,2.50
2022-11-13T08:19:23.113Z,2.90
2022-11-13T08:20:43.944Z,1.90
2022-11-13T08:22:04.854Z,2.70
2022-11-13T08:23:26.097Z,2.10
2022-11-13T08:24:46.744Z,0.70
2022-11-13T08:26:09.114Z,2.30
2022-11-13T08:27:31.682Z,2.50
2022-11-13T08:28:52.330Z,4.00
2022-11-13T08:30:14.216Z,3.40
2022-11-13T08:31:35.810Z,3.60
2022-11-13T08:32:57.282Z,3.20
2022-11-13T08:34:18.954Z,3.40
2022-11-13T08:35:39.295Z,3.30
2022-11-13T08:37:00.705Z,3.60
2022-11-13T08:38:21.632Z,3.10
2022-11-13T08:39:42.893Z,3.10
2022-11-13T08:41:08.913Z,3.10
2022-11-13T08:42:27.284Z,5.60
2022-11-13T08:43:48.075Z,4.40
2022-11-13T08:45:09.895Z,3.80
2022-11-13T08:46:31.479Z,6.30
2022-11-13T08:47:52.330Z,4.40
2022-11-13T08:49:14.301Z,5.30
2022-11-13T08:50:34.870Z,5.10
2022-11-13T08:51:56.453Z,4.20
2022-11-13T08:53:18.204Z,4.40
2022-11-13T08:54:39.103Z,5.40
2022-11-13T08:56:00.943Z,5.00
2022-11-13T08:57:21.829Z,3.60
2022-11-13T08:58:43.261Z,5.00
2022-11-13T09:00:05.233Z,5.90
2022-11-13T09:01:27.290Z,5.20
2022-11-13T09:02:50.291Z,4.40
2022-11-13T09:04:12.122Z,6.20
2022-11-13T09:05:32.993Z,5.10
2022-11-13T09:06:54.612Z,4.40
2022-11-13T09:08:16.483Z,5.20
2022-11-13T09:09:37.132Z,1.80
2022-11-13T09:11:03.416Z,5.30
2022-11-13T09:12:24.189Z,4.50
2022-11-13T09:13:48.411Z,5.20
2022-11-13T09:15:09.221Z,5.10
2022-11-13T09:16:30.006Z,5.70
2022-11-13T09:17:51.759Z,5.20
2022-11-13T09:19:12.055Z,5.20
2022-11-13T09:20:33.694Z,4.80
2022-11-13T09:21:54.456Z,2.60
2022-11-13T09:23:15.340Z,4.00
2022-11-13T09:24:36.806Z,6.20
2022-11-13T09:26:00.784Z,5.60
2022-11-13T09:27:21.289Z,6.00
2022-11-13T09:28:42.585Z,7.00
2022-11-13T09:30:04.799Z,7.20
2022-11-13T09:31:25.399Z,6.50
2022-11-13T09:32:46.370Z,6.00
2022-11-13T09:34:07.602Z,6.30
2022-11-13T09:35:30.266Z,6.80
2022-11-13T09:36:51.858Z,7.10
2022-11-13T09:38:13.734Z,7.60
2022-11-13T09:39:35.113Z,6.70
2022-11-13T09:42:22.282Z,7.00
2022-11-13T09:43:55.345Z,6.20
2022-11-13T09:45:15.502Z,6.40
2022-11-13T09:46:49.391Z,5.40
2022-11-13T09:49:54.941Z,6.80
2022-11-13T09:51:18.809Z,5.60
2022-11-13T09:52:42.463Z,6.40
2022-11-13T09:54:08.757Z,5.80
2022-11-13T09:55:33.044Z,5.20
2022-11-13T09:57:12.998Z,5.10
2022-11-13T09:58:43.764Z,5.10
2022-11-13T10:00:14.377Z,6.90
2022-11-13T10:01:53.192Z,6.50
2022-11-13T10:05:03.129Z,5.60
2022-11-13T10:06:30.612Z,5.80
2022-11-13T10:07:58.142Z,6.20
2022-11-13T10:09:31.209Z,4.70
2022-11-13T10:11:27.596Z,6.90
2022-11-13T10:12:48.533Z,6.70
2022-11-13T10:14:21.805Z,7.30
2022-11-13T10:15:46.730Z,6.50
2022-11-13T10:17:27.835Z,7.20
2022-11-13T10:18:48.578Z,7.70
2022-11-13T10:21:40.177Z,6.00
2022-11-13T10:24:25.197Z,7.00
2022-11-13T10:25:46.401Z,6.90
2022-11-13T10:27:11.937Z,6.70
2022-11-13T10:28:50.170Z,7.30
2022-11-13T10:29:57.862Z,7.20
2022-11-13T10:31:18.516Z,6.90
2022-11-13T10:32:39.424Z,6.30
2022-11-13T10:34:00.613Z,6.20
2022-11-13T10:35:30.523Z,7.20
2022-11-13T10:37:07.436Z,7.20
2022-11-13T10:38:52.137Z,8.70
2022-11-13T10:41:31.464Z,11.80
2022-11-13T10:42:52.184Z,12.00
2022-11-13T10:44:29.033Z,10.80
2022-11-13T10:47:22.673Z,11.00
2022-11-13T10:48:40.285Z,8.30
2022-11-13T10:50:26.949Z,9.70
2022-11-13T10:51:55.234Z,13.30
2022-11-13T10:53:17.789Z,10.70
2022-11-13T10:54:39.155Z,12.10
2022-11-13T10:55:59.942Z,8.70
2022-11-13T10:58:36.074Z,10.40
2022-11-13T10:59:57.294Z,11.50
2022-11-13T11:01:22.932Z,10.20
2022-11-13T11:02:48.603Z,10.60
2022-11-13T11:05:26.851Z,11.70
2022-11-13T11:08:10.643Z,10.00
2022-11-13T11:09:31.672Z,10.90
2022-11-13T11:12:14.091Z,9.80
2022-11-13T11:13:34.971Z,8.10
2022-11-13T11:15:04.874Z,8.90
2022-11-13T11:16:25.814Z,8.90
2022-11-13T11:17:55.700Z,8.70
2022-11-13T11:19:16.535Z,6.90
2022-11-13T11:20:55.288Z,6.70
2022-11-13T11:22:17.096Z,6.70
2022-11-13T11:25:15.369Z,9.50
2022-11-13T11:26:49.166Z,11.40
2022-11-13T11:29:31.495Z,13.60
2022-11-13T11:30:54.891Z,12.10
2022-11-13T11:32:24.765Z,15.50
2022-11-13T11:34:01.831Z,16.90
2022-11-13T11:35:46.913Z,14.30
2022-11-13T11:37:15.184Z,21.20
2022-11-13T11:38:51.560Z,26.90
2022-11-13T11:40:21.997Z,40.00
2022-11-13T11:42:07.417Z,35.20
2022-11-13T11:45:01.299Z,35.50
2022-11-13T11:46:23.061Z,42.80
2022-11-13T11:47:43.578Z,46.90
2022-11-13T11:49:04.368Z,52.80
2022-11-13T11:52:04.796Z,46.40
2022-11-13T11:55:11.483Z,36.30
2022-11-13T11:56:38.834Z,34.10
2022-11-13T11:58:04.505Z,32.70
2022-11-13T11:59:41.073Z,31.90
2022-11-13T12:01:12.515Z,28.90
2022-11-13T12:02:48.811Z,32.00
2022-11-13T12:04:24.587Z,27.30
2022-11-13T12:06:03.946Z,30.00
2022-11-13T14:30:42.365Z,5.30
2022-11-13T14:32:15.764Z,4.60
2022-11-13T14:35:01.172Z,4.80
2022-11-13T14:36:29.318Z,5.00
2022-11-13T14:37:52.883Z,3.00
2022-11-13T14:39:17.377Z,4.10
2022-11-13T14:40:38.565Z,3.60
2022-11-13T14:42:00.702Z,4.50
2022-11-13T14:44:41.940Z,4.40
2022-11-13T14:46:04.792Z,4.10
2022-11-13T14:47:28.570Z,4.20
2022-11-13T14:48:53.223Z,3.40
2022-11-13T14:50:29.269Z,4.40
2022-11-13T14:51:54.481Z,5.00
2022-11-13T14:53:15.298Z,3.40
2022-11-13T14:55:08.166Z,3.80
2022-11-13T14:57:14.020Z,3.10
2022-11-13T14:58:37.323Z,4.40
2022-11-13T15:00:10.424Z,3.70
2022-11-13T15:01:31.353Z,4.30
2022-11-13T15:02:52.214Z,2.90
2022-11-13T15:04:13.159Z,3.70
2022-11-13T15:05:33.908Z,3.30
2022-11-13T15:06:59.783Z,4.10
2022-11-13T15:08:20.575Z,4.30
2022-11-13T15:09:41.264Z,3.50
2022-11-13T15:11:02.547Z,3.90
2022-11-13T15:12:23.334Z,3.80
2022-11-13T15:13:44.594Z,3.40
2022-11-13T15:15:05.401Z,3.20
2022-11-13T15:16:28.991Z,4.10
2022-11-13T15:17:49.777Z,1.60
2022-11-13T15:19:18.230Z,4.00
2022-11-13T15:20:39.586Z,3.90
2022-11-13T15:23:25.654Z,4.30
2022-11-13T15:24:48.809Z,3.60
2022-11-13T15:26:12.463Z,3.70
2022-11-13T15:27:32.881Z,4.00
2022-11-13T15:28:53.767Z,0.20
2022-11-13T15:30:16.766Z,4.80
2022-11-13T15:31:42.904Z,4.10
2022-11-13T15:33:12.929Z,3.30
2022-11-13T15:34:33.543Z,4.00
2022-11-13T15:35:54.327Z,3.30
2022-11-13T15:37:16.779Z,1.80
2022-11-13T15:38:37.495Z,4.50
2022-11-13T15:39:58.541Z,3.90
2022-11-13T15:41:20.860Z,4.20
2022-11-13T15:42:43.360Z,4.80
2022-11-13T15:44:13.089Z,3.90
2022-11-13T15:45:35.467Z,4.70
2022-11-13T15:46:58.498Z,4.20
2022-11-13T15:48:19.271Z,4.00
2022-11-13T15:49:56.631Z,0.20
2022-11-13T15:51:07.241Z,4.20
2022-11-13T15:52:29.771Z,4.60
2022-11-13T15:55:30.173Z,5.20
2022-11-13T15:56:52.890Z,5.10
2022-11-13T15:58:14.587Z,4.70
2022-11-13T15:59:35.031Z,4.70
2022-11-13T16:00:56.067Z,6.60
2022-11-13T16:02:16.634Z,6.20
2022-11-13T16:03:37.438Z,6.00
2022-11-13T16:04:59.226Z,5.30
2022-11-13T16:06:21.805Z,6.20
2022-11-13T16:07:43.842Z,5.30
2022-11-13T16:09:12.754Z,4.90
2022-11-13T16:10:39.105Z,5.30
2022-11-13T16:12:02.072Z,3.20
2022-11-13T16:13:23.612Z,5.60
2022-11-13T16:14:45.132Z,5.40
2022-11-13T16:16:20.028Z,6.30
2022-11-13T16:17:42.973Z,5.00
2022-11-13T16:19:05.532Z,6.30
2022-11-13T16:20:26.164Z,4.50
2022-11-13T16:21:47.051Z,5.60
2022-11-13T16:23:09.439Z,6.30
2022-11-13T16:24:29.997Z,5.80
2022-11-13T16:25:52.544Z,6.20
2022-11-13T16:28:27.231Z,6.70
2022-11-13T16:29:49.434Z,4.80
2022-11-13T16:31:10.423Z,6.20
2022-11-13T16:32:32.338Z,5.60
2022-11-13T16:33:53.427Z,6.10
2022-11-13T16:35:18.291Z,4.80
2022-11-13T16:36:39.218Z,6.30
2022-11-13T16:38:00.085Z,3.80
2022-11-13T16:39:21.458Z,6.10
2022-11-13T16:40:42.814Z,6.20
2022-11-13T16:42:04.196Z,5.50
2022-11-13T16:43:24.518Z,6.60
2022-11-13T16:44:47.138Z,6.10
2022-11-13T16:46:29.169Z,6.70
2022-11-13T16:47:50.068Z,6.40
2022-11-13T16:49:14.089Z,6.30
2022-11-13T16:50:35.430Z,5.40
2022-11-13T16:51:56.300Z,5.30
2022-11-13T16:53:18.225Z,6.50
2022-11-13T16:54:39.862Z,5.60
2022-11-13T16:56:02.000Z,5.80
2022-11-13T16:57:23.868Z,7.10
2022-11-13T16:58:45.198Z,6.30
2022-11-13T17:00:06.972Z,6.80
2022-11-13T17:01:28.901Z,7.70
2022-11-13T17:02:49.910Z,7.30
2022-11-13T17:04:13.408Z,5.80
2022-11-13T17:05:34.407Z,6.40
2022-11-13T17:06:57.731Z,6.40
2022-11-13T17:08:17.687Z,5.60
2022-11-13T17:09:39.678Z,7.30
2022-11-13T17:11:01.689Z,6.20
2022-11-13T17:12:23.358Z,6.50
2022-11-13T17:13:51.590Z,5.10
2022-11-13T17:15:13.885Z,6.10
2022-11-13T17:16:35.931Z,6.90
2022-11-13T17:17:57.290Z,6.00
2022-11-13T17:19:18.012Z,5.30
2022-11-13T17:20:39.169Z,5.60
2022-11-13T17:22:00.525Z,7.00
2022-11-13T17:23:21.665Z,5.60
2022-11-13T17:24:45.131Z,5.70
2022-11-13T17:26:07.231Z,5.10
2022-11-13T17:27:27.787Z,6.10
2022-11-13T17:28:49.514Z,5.80
2022-11-13T17:30:12.489Z,5.30
2022-11-13T17:31:33.002Z,6.30
2022-11-13T17:32:55.495Z,6.10
2022-11-13T17:34:17.052Z,6.10
2022-11-13T17:35:38.502Z,5.60
2022-11-13T17:36:59.388Z,4.90
2022-11-13T17:38:19.917Z,3.70
2022-11-13T17:39:41.707Z,3.10
2022-11-13T17:41:07.301Z,5.00
2022-11-13T17:42:28.775Z,5.60
2022-11-13T17:43:50.437Z,4.60
2022-11-13T17:45:11.019Z,5.30
2022-11-13T17:46:31.916Z,2.40
2022-11-13T17:47:53.550Z,5.20
2022-11-13T17:49:15.467Z,4.80
2022-11-13T17:50:37.651Z,4.50
2022-11-13T17:51:59.513Z,5.20
2022-11-13T17:53:20.357Z,5.20
2022-11-13T17:54:41.046Z,5.90
2022-11-13T17:56:02.907Z,6.10
2022-11-13T17:57:27.013Z,2.40
2022-11-13T17:58:46.726Z,5.40
2022-11-13T18:00:09.318Z,6.20
2022-11-13T18:01:30.141Z,7.50
2022-11-13T18:02:52.549Z,7.20
2022-11-13T18:04:13.630Z,6.30
2022-11-13T18:05:40.320Z,6.00
2022-11-13T18:06:58.827Z,6.20
2022-11-13T18:08:20.847Z,6.50
2022-11-13T18:09:42.178Z,7.30
2022-11-13T18:11:12.803Z,6.90
2022-11-13T18:12:36.128Z,6.60
2022-11-13T18:13:57.561Z,6.70
2022-11-13T18:15:18.444Z,6.60
2022-11-13T18:16:39.577Z,6.40
2022-11-13T18:18:00.129Z,4.20
2022-11-13T18:19:21.004Z,7.80
2022-11-13T18:20:41.850Z,6.70
2022-11-13T18:22:02.826Z,7.30
2022-11-13T18:23:24.603Z,6.30
2022-11-13T18:24:47.527Z,8.10
2022-11-13T18:26:14.650Z,7.00
2022-11-13T18:27:35.896Z,6.70
2022-11-13T18:28:56.617Z,6.00
2022-11-13T18:30:17.997Z,6.60
2022-11-13T18:31:39.612Z,5.30
2022-11-13T18:33:00.520Z,6.00
2022-11-13T18:34:21.411Z,5.70
2022-11-13T18:35:42.352Z,5.80
2022-11-13T18:37:04.220Z,5.20
2022-11-13T18:38:24.938Z,6.60
2022-11-13T18:39:46.834Z,6.80
2022-11-13T18:41:08.784Z,6.50
2022-11-13T18:42:30.671Z,6.00
2022-11-13T18:43:52.647Z,7.20
2022-11-13T18:45:14.459Z,6.00
2022-11-13T18:46:35.148Z,5.30
2022-11-13T18:47:56.937Z,6.80
2022-11-13T18:49:17.704Z,5.90
2022-11-13T18:50:39.428Z,4.90
2022-11-13T18:52:04.172Z,6.70
2022-11-13T18:53:25.872Z,6.50
2022-11-13T18:54:47.664Z,5.90
2022-11-13T18:56:17.372Z,7.30
2022-11-13T18:57:38.963Z,4.90
2022-11-13T18:58:59.892Z,6.90
2022-11-13T19:00:21.148Z,6.90
2022-11-13T19:01:42.507Z,6.50
2022-11-13T19:03:05.910Z,5.30
2022-11-13T19:04:26.420Z,7.20
2022-11-13T19:05:48.509Z,6.70
2022-11-13T19:07:09.312Z,6.80
2022-11-13T19:08:30.808Z,5.70
2022-11-13T19:09:53.168Z,5.80
2022-11-13T19:11:17.152Z,4.70
2022-11-13T19:12:38.979Z,6.30
2022-11-13T19:13:59.983Z,6.70
2022-11-13T19:15:21.108Z,7.00
2022-11-13T19:16:41.985Z,7.00
2022-11-13T19:18:04.073Z,6.20
2022-11-13T19:19:25.265Z,6.50
2022-11-13T19:20:46.482Z,6.50
2022-11-13T19:22:07.410Z,7.10
2022-11-13T19:23:28.006Z,6.20
2022-11-13T19:24:48.812Z,6.10
2022-11-13T19:26:10.055Z,4.40
2022-11-13T19:27:30.534Z,5.90
2022-11-13T19:28:52.695Z,6.10
2022-11-13T19:30:14.972Z,6.50
2022-11-13T19:31:36.500Z,6.70
2022-11-13T19:32:57.909Z,7.40
2022-11-13T19:34:18.886Z,7.00
2022-11-13T19:35:40.853Z,5.60
2022-11-13T19:37:01.625Z,7.40
2022-11-13T19:38:22.411Z,5.70
2022-11-13T19:39:43.181Z,6.60
2022-11-13T19:41:04.722Z,5.30
2022-11-13T19:42:25.443Z,7.00
2022-11-13T19:43:46.305Z,6.10
2022-11-13T19:45:08.653Z,7.60
2022-11-13T19:46:30.011Z,5.70
2022-11-13T19:47:51.727Z,6.20
2022-11-13T19:49:12.915Z,6.90
2022-11-13T19:50:34.511Z,6.60
2022-11-13T19:51:55.350Z,6.50
2022-11-13T19:53:16.063Z,6.10
2022-11-13T19:54:36.754Z,6.20
2022-11-13T19:55:59.170Z,5.90
2022-11-13T19:57:20.600Z,5.60
2022-11-13T19:58:41.940Z,4.70
2022-11-13T20:00:03.659Z,6.10
2022-11-13T20:01:26.579Z,5.60
2022-11-13T20:02:47.447Z,5.90
2022-11-13T20:04:08.965Z,4.90
2022-11-13T20:05:30.168Z,6.00
2022-11-13T20:06:52.288Z,6.10
2022-11-13T20:08:13.536Z,5.80
2022-11-13T20:09:34.547Z,5.80
2022-11-13T20:11:08.442Z,5.90
2022-11-13T20:12:29.248Z,6.90
2022-11-13T20:13:50.237Z,4.80
2022-11-13T20:15:11.214Z,6.10
2022-11-13T20:16:32.335Z,7.10
2022-11-13T20:17:53.714Z,7.20
2022-11-13T20:19:15.349Z,5.00
2022-11-13T20:20:36.961Z,8.60
2022-11-13T20:21:57.720Z,7.80
2022-11-13T20:23:19.212Z,8.70
2022-11-13T20:24:40.945Z,8.60
2022-11-13T20:26:04.336Z,7.20
2022-11-13T20:27:25.031Z,8.80
2022-11-13T20:28:46.401Z,9.50
2022-11-13T20:30:09.067Z,7.80
2022-11-13T20:31:29.670Z,8.80
2022-11-13T20:32:50.552Z,8.70
2022-11-13T20:34:11.383Z,8.10
2022-11-13T20:35:32.153Z,8.90
2022-11-13T20:36:53.377Z,8.20
2022-11-13T20:38:14.139Z,8.50
2022-11-13T20:39:34.849Z,9.10
2022-11-13T20:40:58.623Z,11.10
2022-11-13T20:42:20.212Z,9.70
2022-11-13T20:43:41.382Z,9.00
2022-11-13T20:45:03.554Z,9.50
2022-11-13T20:46:26.073Z,8.40
2022-11-13T20:47:47.278Z,10.20
2022-11-13T20:49:07.854Z,6.10
2022-11-13T20:50:28.469Z,9.60
2022-11-13T20:51:51.462Z,9.30
2022-11-13T20:53:11.690Z,8.70
2022-11-13T20:54:33.825Z,9.50
2022-11-13T20:55:57.333Z,8.80
2022-11-13T20:57:18.485Z,8.10
2022-11-13T20:58:39.658Z,9.20
2022-11-13T21:00:00.297Z,8.20
2022-11-13T21:01:22.893Z,7.80
2022-11-13T21:02:43.775Z,8.90
2022-11-13T21:04:04.696Z,8.50
2022-11-13T21:05:27.444Z,6.70
2022-11-13T21:06:48.564Z,8.90
2022-11-13T21:08:10.086Z,9.30
2022-11-13T21:09:31.437Z,8.80
2022-11-13T21:10:53.084Z,9.60
2022-11-13T21:12:14.489Z,7.90
2022-11-13T21:13:35.260Z,8.80
2022-11-13T21:14:56.190Z,8.70
2022-11-13T21:16:17.131Z,9.20
2022-11-13T21:17:37.935Z,8.90
2022-11-13T21:18:58.871Z,8.00
2022-11-13T21:20:19.675Z,9.60
2022-11-13T21:21:40.129Z,8.40
2022-11-13T21:23:01.203Z,9.70
2022-11-13T21:24:21.962Z,10.10
2022-11-13T21:25:42.734Z,8.90
2022-11-13T21:27:03.700Z,7.50
2022-11-13T21:28:27.182Z,9.50
2022-11-13T21:29:46.905Z,7.50
2022-11-13T21:31:11.506Z,7.80
2022-11-13T21:32:32.719Z,8.80
2022-11-13T21:33:53.078Z,8.70
2022-11-13T21:35:18.534Z,9.50
2022-11-13T21:36:37.597Z,7.40
2022-11-13T21:37:59.918Z,8.60
2022-11-13T21:39:21.538Z,7.70
2022-11-13T21:40:43.314Z,9.00
2022-11-13T21:42:04.054Z,7.70
2022-11-13T21:43:24.881Z,8.50
2022-11-13T21:44:45.829Z,9.20
2022-11-13T21:46:07.198Z,7.70
2022-11-13T21:47:28.006Z,4.70
2022-11-13T21:48:53.074Z,8.70
2022-11-13T21:50:14.276Z,8.60
2022-11-13T21:51:35.665Z,9.60
2022-11-13T21:52:56.217Z,8.20
2022-11-13T21:54:17.030Z,8.60
2022-11-13T21:55:38.766Z,7.10
2022-11-13T21:57:00.447Z,8.00
2022-11-13T21:59:41.975Z,7.80
2022-11-13T22:01:05.867Z,8.60
2022-11-13T22:02:26.523Z,4.50
2022-11-13T22:03:47.380Z,8.30
2022-11-13T22:05:08.664Z,8.50
2022-11-13T22:06:31.659Z,7.90
2022-11-13T22:07:51.995Z,9.00
2022-11-13T22:10:27.154Z,3.10
2022-11-13T22:11:47.951Z,7.30
2022-11-13T22:13:08.834Z,6.20
2022-11-13T22:14:30.441Z,7.30
2022-11-13T22:15:51.218Z,6.10
2022-11-13T22:17:12.245Z,6.30
2022-11-13T22:18:33.246Z,6.90
2022-11-13T22:19:54.046Z,6.50
2022-11-13T22:21:15.841Z,7.60
2022-11-13T22:22:36.481Z,7.40
2022-11-13T22:23:58.332Z,7.90
2022-11-13T22:25:18.874Z,7.20
2022-11-13T22:26:41.465Z,6.80
2022-11-13T22:28:02.309Z,7.00
2022-11-13T22:29:22.957Z,6.70
2022-11-13T22:31:57.938Z,7.40
2022-11-13T22:33:18.828Z,6.90
2022-11-13T22:34:40.518Z,7.00
2022-11-13T22:36:04.565Z,7.10
2022-11-13T22:37:25.439Z,7.30
2022-11-13T22:38:46.307Z,7.10
2022-11-13T22:40:09.532Z,7.10
2022-11-13T22:41:31.761Z,7.70
2022-11-13T22:42:54.522Z,8.40
2022-11-13T22:44:15.251Z,7.70
2022-11-13T22:45:38.054Z,6.10
2022-11-13T22:46:59.871Z,6.80
2022-11-13T22:48:21.515Z,6.40
2022-11-13T22:49:43.098Z,6.70
2022-11-13T22:51:24.763Z,6.90
2022-11-13T22:52:45.478Z,6.00
2022-11-13T22:54:07.684Z,5.30
2022-11-13T22:55:29.139Z,6.10
2022-11-13T22:56:50.298Z,6.70
2022-11-13T22:58:12.020Z,6.70
2022-11-13T22:59:33.424Z,6.90
2022-11-13T23:00:55.964Z,6.30
2022-11-13T23:02:16.593Z,7.20
2022-11-13T23:03:38.564Z,6.20
2022-11-13T23:04:58.986Z,6.10
2022-11-13T23:06:21.923Z,5.10
2022-11-13T23:07:43.612Z,5.80
2022-11-13T23:09:04.559Z,6.00
2022-11-13T23:10:24.931Z,5.60
2022-11-13T23:11:45.454Z,7.00
2022-11-13T23:13:06.915Z,6.30
2022-11-13T23:14:27.613Z,6.90
2022-11-13T23:15:48.451Z,5.30
2022-11-13T23:17:10.208Z,6.60
2022-11-13T23:18:31.605Z,5.90
2022-11-13T23:19:51.921Z,6.00
2022-11-13T23:21:13.034Z,5.80
2022-11-13T23:22:34.185Z,4.90
2022-11-13T23:23:54.980Z,4.50
2022-11-13T23:25:15.562Z,5.00
2022-11-13T23:26:37.925Z,6.20
2022-11-13T23:27:59.085Z,6.00
2022-11-13T23:29:19.850Z,5.30
2022-11-13T23:30:40.281Z,5.40
2022-11-13T23:32:01.020Z,6.20
2022-11-13T23:33:22.290Z,5.90
2022-11-13T23:34:59.792Z,5.80
2022-11-13T23:36:07.198Z,4.90
2022-11-13T23:37:28.983Z,6.00
2022-11-13T23:38:49.878Z,5.80
2022-11-13T23:40:11.451Z,5.40
2022-11-13T23:41:31.969Z,6.40
2022-11-13T23:42:55.528Z,6.40
2022-11-13T23:44:16.831Z,5.90
2022-11-13T23:45:37.524Z,5.10
2022-11-13T23:46:58.534Z,5.90
2022-11-13T23:48:19.166Z,5.60
2022-11-13T23:49:40.159Z,6.00
2022-11-13T23:51:01.457Z,4.90
2022-11-13T23:52:22.437Z,5.50
2022-11-13T23:53:43.123Z,5.40
2022-11-13T23:55:04.859Z,5.00
2022-11-13T23:56:25.407Z,5.40
2022-11-13T23:57:47.194Z,4.20
2022-11-13T23:59:08.247Z,5.40
